createdAt,value
2019-01-24T00:01:22.830Z,33.93
2019-01-24T00:06:26.502Z,30.63
2019-01-24T00:11:30.180Z,30.60
2019-01-24T00:16:34.152Z,35.03
2019-01-24T00:21:37.847Z,32.90
2019-01-24T00:26:41.532Z,30.83
2019-01-24T00:31:45.266Z,29.53
2019-01-24T00:36:48.999Z,30.77
2019-01-24T00:41:52.742Z,30.93
2019-01-24T00:46:56.624Z,32.23
2019-01-24T00:52:00.296Z,30.67
2019-01-24T00:57:04.045Z,31.67
2019-01-24T01:02:07.757Z,31.10
2019-01-24T01:07:11.594Z,31.37
2019-01-24T01:12:15.400Z,30.43
2019-01-24T01:17:19.082Z,34.33
2019-01-24T01:22:22.797Z,31.83
2019-01-24T01:27:26.529Z,32.47
2019-01-24T01:32:30.343Z,31.17
2019-01-24T01:37:34.243Z,30.87
2019-01-24T01:42:37.998Z,30.10
2019-01-24T01:47:42.060Z,33.43
2019-01-24T01:52:45.811Z,30.83
2019-01-24T01:57:49.611Z,31.70
2019-01-24T02:02:53.329Z,32.10
2019-01-24T02:07:57.033Z,29.70
2019-01-24T02:13:00.839Z,28.17
2019-01-24T02:18:05.157Z,30.43
2019-01-24T02:23:08.848Z,27.50
2019-01-24T02:28:12.863Z,32.57
2019-01-24T02:33:16.528Z,29.80
2019-01-24T02:38:20.237Z,31.50
2019-01-24T02:43:23.916Z,31.23
2019-01-24T02:48:27.911Z,33.97
2019-01-24T02:53:31.886Z,31.27
2019-01-24T02:58:54.928Z,33.40
2019-01-24T03:03:58.643Z,34.10
2019-01-24T03:09:02.911Z,36.50
2019-01-24T03:14:06.700Z,34.97
2019-01-24T03:19:10.769Z,32.90
2019-01-24T03:24:14.476Z,33.73
2019-01-24T03:29:18.181Z,33.37
2019-01-24T03:34:21.879Z,34.63
2019-01-24T03:39:25.589Z,30.80
2019-01-24T03:44:29.282Z,31.20
2019-01-24T03:49:32.988Z,33.50
2019-01-24T03:54:36.708Z,31.73
2019-01-24T03:59:40.423Z,31.37
2019-01-24T04:04:44.203Z,34.80
2019-01-24T04:09:48.187Z,33.57
2019-01-24T04:14:51.900Z,31.67
2019-01-24T04:19:55.607Z,33.57
2019-01-24T04:24:59.336Z,33.97
2019-01-24T04:30:04.022Z,33.67
2019-01-24T04:35:09.143Z,34.50
2019-01-24T04:40:17.368Z,31.23
2019-01-24T04:45:21.161Z,31.77
2019-01-24T04:50:25.542Z,30.50
2019-01-24T04:55:29.256Z,32.57
2019-01-24T05:00:32.963Z,31.67
2019-01-24T05:05:36.685Z,30.93
2019-01-24T05:10:40.379Z,34.03
2019-01-24T05:15:44.114Z,28.07
2019-01-24T05:20:47.906Z,32.70
2019-01-24T05:25:51.631Z,29.47
2019-01-24T05:30:55.379Z,33.80
2019-01-24T05:35:59.146Z,27.60
2019-01-24T05:41:02.916Z,31.53
2019-01-24T05:46:06.703Z,33.00
2019-01-24T05:51:10.435Z,35.63
2019-01-24T05:56:14.760Z,27.97
2019-01-24T06:01:18.945Z,32.57
2019-01-24T06:06:22.658Z,27.27
2019-01-24T06:11:26.367Z,26.53
2019-01-24T06:16:30.058Z,28.53
2019-01-24T06:21:33.915Z,61.93
2019-01-24T06:26:39.898Z,49.87
2019-01-24T06:31:43.624Z,30.13
2019-01-24T06:36:47.335Z,26.93
2019-01-24T06:41:51.043Z,29.87
2019-01-24T06:46:54.743Z,26.73
2019-01-24T06:51:58.463Z,31.57
2019-01-24T06:57:02.188Z,28.70
2019-01-24T07:02:06.082Z,27.93
2019-01-24T07:07:09.891Z,30.13
2019-01-24T07:12:13.637Z,28.33
2019-01-24T07:17:17.370Z,33.10
2019-01-24T07:22:21.087Z,26.93
2019-01-24T07:27:24.777Z,31.97
2019-01-24T07:32:28.845Z,27.87
2019-01-24T07:37:32.534Z,28.53
2019-01-24T07:42:36.240Z,28.53
2019-01-24T07:47:41.287Z,29.07
2019-01-24T07:52:45.110Z,24.93
2019-01-24T07:57:49.782Z,29.20
2019-01-24T08:02:53.758Z,26.30
2019-01-24T08:07:57.527Z,24.50
2019-01-24T08:13:01.399Z,25.63
2019-01-24T08:18:05.512Z,25.37
2019-01-24T08:23:09.527Z,25.33
2019-01-24T08:28:13.213Z,26.33
2019-01-24T08:33:16.989Z,29.63
2019-01-24T08:38:21.201Z,26.30
2019-01-24T08:43:24.939Z,26.93
2019-01-24T08:48:28.705Z,23.83
2019-01-24T08:53:32.478Z,27.57
2019-01-24T08:58:36.178Z,37.60
2019-01-24T09:03:39.873Z,29.90
2019-01-24T09:08:43.562Z,29.50
2019-01-24T09:13:47.547Z,27.93
2019-01-24T09:18:51.238Z,32.47
2019-01-24T09:23:54.938Z,66.00
2019-01-24T09:28:58.936Z,25.17
2019-01-24T09:34:02.969Z,26.50
2019-01-24T09:39:08.416Z,29.87
2019-01-24T09:44:12.107Z,28.47
2019-01-24T09:49:15.807Z,32.50
2019-01-24T09:54:19.497Z,29.53
2019-01-24T09:59:23.190Z,28.80
2019-01-24T10:04:26.903Z,30.07
2019-01-24T10:09:30.607Z,29.33
2019-01-24T10:14:34.387Z,31.43
2019-01-24T10:19:38.428Z,30.37
2019-01-24T10:24:42.430Z,32.10
2019-01-24T10:29:46.129Z,31.77
2019-01-24T10:34:49.832Z,31.30
2019-01-24T10:39:53.548Z,33.93
2019-01-24T10:44:57.312Z,31.63
2019-01-24T10:50:01.011Z,33.97
2019-01-24T10:55:05.434Z,34.23
2019-01-24T11:00:13.483Z,32.53
2019-01-24T11:05:17.419Z,33.60
2019-01-24T11:10:21.305Z,34.17
2019-01-24T11:15:25.270Z,33.83
2019-01-24T11:20:29.520Z,30.40
2019-01-24T11:25:33.651Z,31.40
2019-01-24T11:30:37.487Z,35.63
2019-01-24T11:35:41.728Z,42.77
2019-01-24T11:40:45.495Z,40.30
2019-01-24T11:45:49.204Z,39.73
2019-01-24T11:50:53.186Z,39.27
2019-01-24T11:55:56.877Z,41.47
2019-01-24T12:01:00.953Z,43.13
2019-01-24T12:06:05.096Z,40.23
2019-01-24T12:11:08.867Z,41.60
2019-01-24T12:16:12.584Z,39.93
2019-01-24T12:21:16.358Z,40.37
2019-01-24T12:26:20.351Z,43.10
2019-01-24T12:31:24.299Z,41.70
2019-01-24T12:36:28.300Z,36.00
2019-01-24T12:41:31.994Z,39.03
2019-01-24T12:46:35.715Z,38.67
2019-01-24T12:51:39.454Z,38.83
2019-01-24T12:56:43.394Z,35.43
2019-01-24T13:01:47.097Z,37.53
2019-01-24T13:06:50.785Z,37.13
2019-01-24T13:11:54.725Z,38.33
2019-01-24T13:16:58.787Z,31.80
2019-01-24T13:22:02.837Z,37.67
2019-01-24T13:27:06.531Z,36.50
2019-01-24T13:32:10.241Z,39.17
2019-01-24T13:37:13.930Z,39.93
2019-01-24T13:42:17.710Z,37.63
2019-01-24T13:47:21.737Z,34.00
2019-01-24T13:52:25.449Z,35.90
2019-01-24T13:57:29.134Z,35.03
2019-01-24T14:02:32.922Z,38.67
2019-01-24T14:07:36.941Z,37.13
2019-01-24T14:12:40.723Z,37.60
2019-01-24T14:17:44.671Z,36.80
2019-01-24T14:22:48.544Z,37.07
2019-01-24T14:27:52.240Z,40.50
2019-01-24T14:32:56.083Z,40.90
2019-01-24T14:38:00.065Z,38.20
2019-01-24T14:43:04.524Z,45.07
2019-01-24T14:48:08.945Z,48.10
2019-01-24T14:53:12.724Z,42.73
2019-01-24T14:58:16.494Z,42.93
2019-01-24T15:03:20.206Z,41.77
2019-01-24T15:08:24.260Z,41.37
2019-01-24T15:13:28.028Z,42.27
2019-01-24T15:18:31.727Z,41.80
2019-01-24T15:23:35.684Z,41.13
2019-01-24T15:28:39.463Z,41.90
2019-01-24T15:33:43.239Z,39.47
2019-01-24T15:38:47.637Z,42.43
2019-01-24T15:43:51.357Z,37.97
2019-01-24T15:48:55.468Z,41.47
2019-01-24T15:53:59.167Z,38.47
2019-01-24T15:59:02.866Z,41.73
2019-01-24T16:04:06.569Z,39.90
2019-01-24T16:09:10.321Z,38.97
2019-01-24T16:14:14.031Z,40.77
2019-01-24T16:19:17.769Z,37.10
2019-01-24T16:24:21.534Z,40.17
2019-01-24T16:29:25.270Z,40.60
2019-01-24T16:34:28.964Z,41.67
2019-01-24T16:39:32.732Z,40.70
2019-01-24T16:44:36.524Z,39.23
2019-01-24T16:49:40.309Z,40.93
2019-01-24T16:54:44.577Z,40.13
2019-01-24T16:59:48.305Z,41.23
2019-01-24T17:04:52.283Z,41.77
2019-01-24T17:09:56.050Z,44.87
2019-01-24T17:14:59.824Z,43.17
2019-01-24T17:20:05.205Z,42.33
2019-01-24T17:25:10.203Z,46.43
2019-01-24T17:30:16.940Z,42.93
2019-01-24T17:35:21.124Z,49.17
2019-01-24T17:40:27.080Z,49.80
2019-01-24T17:45:32.147Z,47.57
2019-01-24T17:50:36.165Z,47.47
2019-01-24T17:55:42.334Z,46.40
2019-01-24T18:00:51.422Z,47.73
2019-01-24T18:05:55.136Z,44.70
2019-01-24T18:10:59.143Z,44.33
2019-01-24T18:16:02.930Z,45.93
2019-01-24T18:21:06.644Z,50.07
2019-01-24T18:26:10.381Z,48.27
2019-01-24T18:31:14.120Z,46.73
2019-01-24T18:36:17.847Z,49.03
2019-01-24T18:41:21.556Z,51.13
2019-01-24T18:46:25.694Z,49.03
2019-01-24T18:51:29.455Z,50.63
2019-01-24T18:56:33.518Z,48.97
2019-01-24T19:01:38.416Z,47.63
2019-01-24T19:06:42.247Z,48.43
2019-01-24T19:11:46.269Z,48.13
2019-01-24T19:16:50.286Z,50.27
2019-01-24T19:21:54.311Z,46.90
2019-01-24T19:26:58.031Z,49.17
2019-01-24T19:32:04.688Z,45.73
2019-01-24T19:37:08.845Z,51.37
2019-01-24T19:42:12.595Z,49.03
2019-01-24T19:47:17.369Z,46.43
2019-01-24T19:52:21.339Z,48.13
2019-01-24T19:57:25.479Z,47.13
2019-01-24T20:25:55.323Z,46.23
2019-01-24T20:30:59.045Z,46.83
2019-01-24T20:36:03.390Z,49.30
2019-01-24T20:41:07.329Z,43.73
2019-01-24T20:46:40.976Z,46.13
2019-01-24T20:51:44.889Z,45.40
2019-01-24T20:56:51.094Z,48.07
2019-01-24T21:01:55.456Z,44.93
2019-01-24T21:06:59.308Z,44.77
2019-01-24T21:12:03.231Z,43.80
2019-01-24T21:17:07.121Z,46.27
2019-01-24T21:22:13.084Z,44.07
2019-01-24T21:27:16.931Z,45.70
2019-01-24T21:32:20.740Z,47.73
2019-01-24T21:37:24.533Z,49.83
2019-01-24T21:42:47.572Z,48.87
2019-01-24T21:47:51.296Z,46.77
2019-01-24T21:52:55.016Z,47.97
2019-01-24T21:57:58.803Z,47.37
2019-01-24T22:03:02.586Z,45.63
2019-01-24T22:08:07.118Z,45.47
2019-01-24T22:13:11.180Z,47.37
2019-01-24T22:18:15.213Z,47.03
2019-01-24T22:23:19.235Z,47.07
2019-01-24T22:28:24.224Z,46.63
2019-01-24T22:33:27.979Z,43.90
2019-01-24T22:38:31.710Z,47.50
2019-01-24T22:43:35.414Z,46.03
2019-01-24T22:48:39.471Z,45.20
2019-01-24T22:53:43.183Z,51.47
2019-01-24T22:58:46.904Z,44.13
2019-01-24T23:03:55.592Z,46.40
2019-01-24T23:08:59.308Z,48.23
2019-01-24T23:14:03.145Z,45.83
2019-01-24T23:19:06.895Z,47.67
2019-01-24T23:24:10.619Z,46.27
2019-01-24T23:29:14.339Z,51.13
2019-01-24T23:34:18.203Z,46.90
2019-01-24T23:39:21.987Z,50.77
2019-01-24T23:44:26.042Z,50.50
2019-01-24T23:49:29.788Z,49.47
2019-01-24T23:54:33.568Z,44.77
2019-01-24T23:59:37.286Z,47.83
